createdAt,value
2023-02-04T00:00:08.318Z,98.82
2023-02-04T00:03:16.230Z,99.90
2023-02-04T00:06:23.787Z,99.99
2023-02-04T00:09:31.198Z,99.99
2023-02-04T00:12:39.539Z,99.99
2023-02-04T00:15:47.424Z,99.99
2023-02-04T00:18:55.151Z,99.99
2023-02-04T00:22:03.522Z,99.99
2023-02-04T00:25:11.648Z,99.99
2023-02-04T00:28:19.478Z,99.99
2023-02-04T00:31:27.605Z,99.99
2023-02-04T00:34:36.134Z,99.99
2023-02-04T00:37:43.962Z,99.99
2023-02-04T00:40:51.877Z,99.99
2023-02-04T00:44:00.222Z,99.99
2023-02-04T00:47:08.014Z,99.99
2023-02-04T00:50:15.884Z,99.99
2023-02-04T00:53:24.291Z,99.99
2023-02-04T00:56:32.106Z,99.99
2023-02-04T00:59:40.433Z,99.76
2023-02-04T01:02:49.110Z,99.49
2023-02-04T01:05:56.636Z,99.59
2023-02-04T01:09:05.142Z,99.91
2023-02-04T01:12:12.994Z,99.99
2023-02-04T01:15:20.678Z,99.99
2023-02-04T01:18:28.957Z,99.99
2023-02-04T01:21:36.945Z,99.49
2023-02-04T01:24:45.101Z,99.70
2023-02-04T01:27:53.322Z,99.91
2023-02-04T01:31:01.475Z,99.95
2023-02-04T01:34:09.369Z,99.95
2023-02-04T01:37:17.108Z,99.99
2023-02-04T01:40:25.550Z,99.99
2023-02-04T01:43:33.455Z,99.68
2023-02-04T01:46:41.200Z,99.37
2023-02-04T01:49:49.598Z,99.27
2023-02-04T01:52:57.537Z,99.48
2023-02-04T01:56:05.623Z,99.37
2023-02-04T01:59:13.850Z,99.68
2023-02-04T02:02:21.345Z,99.48
2023-02-04T02:05:29.580Z,98.38
2023-02-04T02:08:38.056Z,98.38
2023-02-04T02:11:45.721Z,98.17
2023-02-04T02:14:53.899Z,98.27
2023-02-04T02:18:01.848Z,98.32
2023-02-04T02:21:09.831Z,98.63
2023-02-04T02:24:18.157Z,98.99
2023-02-04T02:27:25.772Z,99.41
2023-02-04T02:30:34.324Z,99.55
2023-02-04T02:33:42.643Z,99.66
2023-02-04T02:36:50.122Z,99.99
2023-02-04T02:39:58.410Z,99.99
2023-02-04T02:43:06.328Z,99.99
2023-02-04T02:46:14.308Z,99.99
2023-02-04T02:49:22.678Z,99.99
2023-02-04T02:52:30.431Z,99.99
2023-02-04T02:55:38.280Z,99.99
2023-02-04T02:58:46.667Z,99.99
2023-02-04T03:01:54.470Z,99.99
2023-02-04T03:05:02.033Z,99.99
2023-02-04T03:08:10.113Z,99.99
2023-02-04T03:11:18.550Z,99.99
2023-02-04T03:14:26.480Z,99.99
2023-02-04T03:17:34.181Z,99.99
2023-02-04T03:20:42.403Z,99.99
2023-02-04T03:23:50.360Z,99.99
2023-02-04T03:26:58.415Z,99.99
2023-02-04T03:30:06.646Z,99.99
2023-02-04T03:33:14.199Z,99.99
2023-02-04T03:36:22.404Z,99.99
2023-02-04T03:39:30.575Z,99.99
2023-02-04T03:42:38.076Z,99.99
2023-02-04T03:45:46.375Z,99.99
2023-02-04T03:48:54.114Z,99.99
2023-02-04T03:52:02.362Z,99.99
2023-02-04T03:55:10.360Z,99.99
2023-02-04T03:58:18.371Z,99.99
2023-02-04T04:01:26.747Z,99.99
2023-02-04T04:04:34.750Z,99.99
2023-02-04T04:07:42.603Z,99.99
2023-02-04T04:10:51.005Z,99.99
2023-02-04T04:13:58.922Z,99.99
2023-02-04T04:17:06.967Z,99.99
2023-02-04T04:20:15.075Z,99.99
2023-02-04T04:23:22.606Z,99.99
2023-02-04T04:26:31.031Z,99.99
2023-02-04T04:29:39.256Z,99.99
2023-02-04T04:32:46.793Z,99.99
2023-02-04T04:35:55.076Z,99.99
2023-02-04T04:39:03.316Z,99.99
2023-02-04T04:42:10.915Z,99.99
2023-02-04T04:45:19.187Z,99.99
2023-02-04T04:48:27.164Z,99.99
2023-02-04T04:51:34.783Z,99.99
2023-02-04T04:54:43.393Z,99.99
2023-02-04T04:57:51.106Z,99.99
2023-02-04T05:00:59.622Z,99.99
2023-02-04T05:04:07.629Z,99.99
2023-02-04T05:07:15.244Z,99.99
2023-02-04T05:10:23.577Z,99.99
2023-02-04T05:13:31.308Z,99.99
2023-02-04T05:16:39.477Z,99.99
2023-02-04T05:19:47.647Z,99.99
2023-02-04T05:22:55.520Z,99.99
2023-02-04T05:26:03.651Z,99.99
2023-02-04T05:29:12.078Z,99.99
2023-02-04T05:32:19.828Z,99.99
2023-02-04T05:35:27.688Z,99.99
2023-02-04T05:38:35.449Z,99.99
2023-02-04T05:41:43.700Z,99.99
2023-02-04T05:44:51.621Z,99.99
2023-02-04T05:47:59.158Z,99.99
2023-02-04T05:51:07.373Z,99.99
2023-02-04T05:54:14.928Z,99.99
2023-02-04T05:57:23.298Z,99.99
2023-02-04T06:00:32.030Z,99.99
2023-02-04T06:03:39.910Z,99.99
2023-02-04T06:06:48.272Z,99.99
2023-02-04T06:09:56.141Z,99.99
2023-02-04T06:13:03.954Z,99.99
2023-02-04T06:16:13.153Z,99.99
2023-02-04T06:19:21.930Z,99.99
2023-02-04T06:22:30.049Z,99.99
2023-02-04T06:25:37.727Z,99.99
2023-02-04T06:28:46.073Z,99.99
2023-02-04T06:31:56.816Z,99.99
2023-02-04T06:35:05.161Z,99.99
2023-02-04T06:38:14.772Z,99.99
2023-02-04T06:41:22.508Z,99.99
2023-02-04T06:44:31.744Z,99.99
2023-02-04T06:47:40.384Z,99.99
2023-02-04T06:50:48.103Z,99.99
2023-02-04T06:53:56.660Z,99.99
2023-02-04T06:57:04.869Z,99.99
2023-02-04T07:00:12.694Z,99.99
2023-02-04T07:03:20.986Z,99.99
2023-02-04T07:06:29.256Z,99.99
2023-02-04T07:09:37.324Z,99.99
2023-02-04T07:12:45.969Z,99.99
2023-02-04T07:15:54.299Z,99.99
2023-02-04T07:19:02.192Z,99.99
2023-02-04T07:22:10.179Z,99.99
2023-02-04T07:25:19.010Z,99.99
2023-02-04T07:28:27.397Z,99.99
2023-02-04T07:31:35.019Z,99.99
2023-02-04T07:34:43.541Z,99.99
2023-02-04T07:37:51.684Z,99.99
2023-02-04T07:40:59.274Z,99.99
2023-02-04T07:44:07.596Z,99.99
2023-02-04T07:47:15.617Z,99.99
2023-02-04T07:50:23.602Z,99.99
2023-02-04T07:53:31.854Z,99.99
2023-02-04T07:56:39.388Z,99.99
2023-02-04T07:59:47.619Z,99.99
2023-02-04T08:02:56.090Z,99.99
2023-02-04T08:06:03.499Z,99.99
2023-02-04T08:09:11.756Z,99.99
2023-02-04T08:12:19.631Z,99.99
2023-02-04T08:15:28.118Z,99.99
2023-02-04T08:18:36.057Z,99.99
2023-02-04T08:21:44.006Z,99.99
2023-02-04T08:24:52.415Z,99.99
2023-02-04T08:28:00.240Z,99.99
2023-02-04T08:31:08.196Z,99.99
2023-02-04T08:34:16.135Z,99.99
2023-02-04T08:37:24.525Z,99.99
2023-02-04T08:40:32.723Z,99.99
2023-02-04T08:43:40.873Z,99.99
2023-02-04T08:46:49.130Z,99.99
2023-02-04T08:49:57.806Z,99.99
2023-02-04T08:53:06.033Z,99.99
2023-02-04T08:56:14.070Z,99.99
2023-02-04T08:59:22.097Z,99.99
2023-02-04T09:02:29.969Z,99.99
2023-02-04T09:05:38.166Z,99.99
2023-02-04T09:08:46.668Z,99.99
2023-02-04T09:11:54.396Z,99.99
2023-02-04T09:15:02.268Z,99.99
2023-02-04T09:18:12.081Z,99.35
2023-02-04T09:21:20.365Z,98.88
2023-02-04T09:24:28.675Z,98.26
2023-02-04T09:27:37.280Z,97.85
2023-02-04T09:30:45.035Z,97.85
2023-02-04T09:33:53.159Z,97.38
2023-02-04T09:37:01.673Z,97.17
2023-02-04T09:40:09.208Z,94.78
2023-02-04T09:43:17.613Z,93.70
2023-02-04T09:46:26.021Z,93.49
2023-02-04T09:49:33.651Z,93.07
2023-02-04T09:52:42.207Z,92.03
2023-02-04T09:55:50.196Z,93.39
2023-02-04T09:58:58.028Z,93.39
2023-02-04T10:02:06.815Z,92.45
2023-02-04T10:05:14.866Z,92.10
2023-02-04T10:08:22.448Z,92.10
2023-02-04T10:11:30.563Z,91.95
2023-02-04T10:14:38.753Z,91.85
2023-02-04T10:17:46.795Z,91.85
2023-02-04T10:20:54.664Z,92.99
2023-02-04T10:24:03.037Z,93.16
2023-02-04T10:27:11.144Z,93.16
2023-02-04T10:30:19.160Z,93.95
2023-02-04T10:33:27.712Z,93.90
2023-02-04T10:36:35.851Z,94.74
2023-02-04T10:39:43.851Z,93.66
2023-02-04T10:42:52.486Z,92.63
2023-02-04T10:46:00.482Z,92.80
2023-02-04T10:49:08.528Z,92.13
2023-02-04T10:52:17.133Z,91.82
2023-02-04T10:55:24.883Z,91.41
2023-02-04T10:58:33.139Z,92.61
2023-02-04T11:01:41.206Z,91.47
2023-02-04T11:04:48.738Z,89.46
2023-02-04T11:07:57.213Z,88.22
2023-02-04T11:11:05.395Z,88.53
2023-02-04T11:14:13.475Z,88.01
2023-02-04T11:17:21.641Z,88.01
2023-02-04T11:20:30.081Z,85.74
2023-02-04T11:23:38.416Z,88.90
2023-02-04T11:26:47.097Z,89.11
2023-02-04T11:29:54.844Z,86.42
2023-02-04T11:33:03.306Z,88.28
2023-02-04T11:36:11.539Z,88.28
2023-02-04T11:39:20.020Z,89.89
2023-02-04T11:42:28.236Z,88.24
2023-02-04T11:45:36.011Z,83.11
2023-02-04T11:48:44.129Z,85.42
2023-02-04T11:51:52.113Z,87.29
2023-02-04T11:55:00.471Z,84.01
2023-02-04T11:58:08.668Z,84.58
2023-02-04T12:01:16.635Z,84.58
2023-02-04T12:04:24.905Z,87.51
2023-02-04T12:07:32.534Z,87.62
2023-02-04T12:10:40.688Z,88.45
2023-02-04T12:13:49.232Z,87.51
2023-02-04T12:16:57.136Z,87.10
2023-02-04T12:20:05.561Z,83.62
2023-02-04T12:23:13.990Z,84.44
2023-02-04T12:26:21.724Z,86.83
2023-02-04T12:29:30.441Z,85.58
2023-02-04T12:32:38.566Z,86.68
2023-02-04T12:35:46.458Z,86.07
2023-02-04T12:38:54.998Z,84.20
2023-02-04T12:42:02.777Z,83.89
2023-02-04T12:45:10.848Z,82.79
2023-02-04T12:48:18.556Z,83.41
2023-02-04T12:51:26.546Z,83.51
2023-02-04T12:54:35.034Z,83.06
2023-02-04T12:57:43.041Z,83.78
2023-02-04T13:00:50.765Z,82.65
2023-02-04T13:03:59.171Z,82.37
2023-02-04T13:07:07.472Z,82.17
2023-02-04T13:10:15.633Z,82.58
2023-02-04T13:13:23.541Z,82.27
2023-02-04T13:16:31.781Z,83.24
2023-02-04T13:19:40.016Z,82.10
2023-02-04T13:22:48.399Z,83.14
2023-02-04T13:25:56.830Z,83.90
2023-02-04T13:29:05.110Z,83.48
2023-02-04T13:32:12.695Z,82.45
2023-02-04T13:35:20.513Z,83.80
2023-02-04T13:38:28.808Z,83.38
2023-02-04T13:41:37.229Z,81.30
2023-02-04T13:44:45.516Z,81.93
2023-02-04T13:47:53.463Z,84.42
2023-02-04T13:51:01.392Z,83.48
2023-02-04T13:54:09.394Z,84.21
2023-02-04T13:57:17.230Z,83.59
2023-02-04T14:00:25.964Z,84.94
2023-02-04T14:03:34.062Z,84.73
2023-02-04T14:06:42.090Z,84.11
2023-02-04T14:09:50.485Z,86.91
2023-02-04T14:12:58.730Z,84.88
2023-02-04T14:16:07.025Z,86.18
2023-02-04T14:19:15.060Z,84.88
2023-02-04T14:22:23.403Z,84.67
2023-02-04T14:25:31.397Z,85.91
2023-02-04T14:28:39.831Z,86.33
2023-02-04T14:31:47.624Z,86.02
2023-02-04T14:34:56.071Z,82.76
2023-02-04T14:38:04.560Z,81.82
2023-02-04T14:41:12.357Z,83.38
2023-02-04T14:44:20.814Z,83.03
2023-02-04T14:47:29.148Z,80.85
2023-02-04T14:50:36.940Z,80.44
2023-02-04T14:53:48.305Z,81.48
2023-02-04T14:56:46.586Z,80.75
2023-02-04T14:59:54.212Z,81.72
2023-02-04T15:03:02.714Z,81.41
2023-02-04T15:06:10.699Z,82.24
2023-02-04T15:09:18.876Z,83.38
2023-02-04T15:12:27.466Z,82.90
2023-02-04T15:15:35.421Z,84.25
2023-02-04T15:18:43.543Z,85.12
2023-02-04T15:21:51.604Z,84.81
2023-02-04T15:24:59.251Z,85.47
2023-02-04T15:28:07.033Z,86.93
2023-02-04T15:31:15.498Z,86.96
2023-02-04T15:34:23.967Z,87.42
2023-02-04T15:37:32.065Z,88.04
2023-02-04T15:40:40.421Z,88.29
2023-02-04T15:43:49.136Z,88.60
2023-02-04T15:46:57.110Z,88.75
2023-02-04T15:50:05.370Z,88.54
2023-02-04T15:53:12.993Z,88.48
2023-02-04T15:56:21.624Z,89.20
2023-02-04T15:59:30.056Z,89.83
2023-02-04T16:02:38.171Z,89.35
2023-02-04T16:05:46.118Z,90.33
2023-02-04T16:08:54.241Z,90.95
2023-02-04T16:12:04.448Z,91.20
2023-02-04T16:15:14.385Z,90.79
2023-02-04T16:18:22.448Z,91.14
2023-02-04T16:21:30.546Z,91.35
2023-02-04T16:24:38.275Z,91.91
2023-02-04T16:27:46.577Z,92.54
2023-02-04T16:30:55.039Z,92.85
2023-02-04T16:34:02.550Z,93.00
2023-02-04T16:37:10.600Z,93.31
2023-02-04T16:40:18.637Z,93.21
2023-02-04T16:43:26.524Z,93.00
2023-02-04T16:46:35.518Z,93.00
2023-02-04T16:49:43.083Z,92.90
2023-02-04T16:52:51.053Z,93.21
2023-02-04T16:55:59.384Z,93.94
2023-02-04T16:59:07.253Z,94.46
2023-02-04T17:02:15.267Z,94.67
2023-02-04T17:05:23.737Z,94.98
2023-02-04T17:08:31.860Z,95.29
2023-02-04T17:11:39.991Z,95.72
2023-02-04T17:14:48.225Z,95.86
2023-02-04T17:17:56.732Z,96.07
2023-02-04T17:21:05.643Z,96.17
2023-02-04T17:24:14.919Z,96.28
2023-02-04T17:27:24.130Z,96.38
2023-02-04T17:30:32.494Z,96.59
2023-02-04T17:33:40.644Z,96.80
2023-02-04T17:36:49.918Z,96.80
2023-02-04T17:39:58.045Z,97.05
2023-02-04T17:43:06.153Z,97.11
2023-02-04T17:46:13.994Z,97.37
2023-02-04T17:49:21.546Z,97.58
2023-02-04T17:52:30.809Z,97.58
2023-02-04T17:55:39.816Z,97.68
2023-02-04T17:58:47.778Z,97.78
2023-02-04T18:01:56.208Z,97.78
2023-02-04T18:05:04.752Z,97.72
2023-02-04T18:08:12.531Z,97.31
2023-02-04T18:11:20.995Z,97.10
2023-02-04T18:14:30.257Z,97.20
2023-02-04T18:17:37.925Z,97.35
2023-02-04T18:20:46.877Z,97.67
2023-02-04T18:23:55.118Z,97.77
2023-02-04T18:27:03.099Z,97.92
2023-02-04T18:30:11.713Z,98.02
2023-02-04T18:33:19.434Z,98.34
2023-02-04T18:36:28.848Z,98.34
2023-02-04T18:39:37.370Z,98.69
2023-02-04T18:42:45.163Z,98.91
2023-02-04T18:45:53.423Z,99.01
2023-02-04T18:49:02.018Z,99.11
2023-02-04T18:52:09.711Z,99.22
2023-02-04T18:55:18.390Z,99.22
2023-02-04T18:58:26.500Z,99.54
2023-02-04T19:01:34.719Z,99.64
2023-02-04T19:04:42.851Z,99.74
2023-02-04T19:07:50.871Z,99.58
2023-02-04T19:10:59.076Z,99.79
2023-02-04T19:14:07.417Z,99.79
2023-02-04T19:17:15.979Z,99.79
2023-02-04T19:20:23.604Z,99.99
2023-02-04T19:23:32.160Z,99.99
2023-02-04T19:26:41.073Z,99.99
2023-02-04T19:29:49.407Z,99.99
2023-02-04T19:32:57.589Z,99.99
2023-02-04T19:36:06.572Z,99.99
2023-02-04T19:39:15.414Z,99.99
2023-02-04T19:42:23.321Z,99.99
2023-02-04T19:45:32.196Z,99.99
2023-02-04T19:48:40.440Z,99.99
2023-02-04T19:51:48.273Z,99.99
2023-02-04T19:54:56.844Z,99.99
2023-02-04T19:58:04.946Z,99.99
2023-02-04T20:01:12.817Z,99.99
2023-02-04T20:04:20.953Z,99.99
2023-02-04T20:07:29.084Z,99.99
2023-02-04T20:10:37.398Z,99.99
2023-02-04T20:13:45.598Z,99.99
2023-02-04T20:16:54.195Z,99.99
2023-02-04T20:20:02.620Z,99.99
2023-02-04T20:23:11.004Z,99.99
2023-02-04T20:26:19.352Z,99.99
2023-02-04T20:29:27.242Z,99.99
2023-02-04T20:32:35.868Z,99.99
2023-02-04T20:35:44.437Z,99.99
2023-02-04T20:38:52.244Z,99.99
2023-02-04T20:42:00.823Z,99.99
2023-02-04T20:45:09.176Z,99.99
2023-02-04T20:48:16.994Z,99.99
2023-02-04T20:51:25.168Z,99.99
2023-02-04T20:54:33.963Z,99.99
2023-02-04T20:57:41.893Z,99.99
2023-02-04T21:00:50.220Z,99.99
2023-02-04T21:03:58.535Z,99.99
2023-02-04T21:07:06.774Z,99.99
2023-02-04T21:10:15.047Z,99.99
2023-02-04T21:13:22.962Z,99.99
2023-02-04T21:16:30.936Z,99.99
2023-02-04T21:19:39.421Z,99.99
2023-02-04T21:22:47.733Z,99.99
2023-02-04T21:25:56.150Z,99.99
2023-02-04T21:29:04.214Z,99.99
2023-02-04T21:32:12.239Z,99.99
2023-02-04T21:35:22.533Z,99.99
2023-02-04T21:38:31.060Z,99.99
2023-02-04T21:41:39.011Z,99.99
2023-02-04T21:44:47.156Z,99.99
2023-02-04T21:47:55.401Z,99.99
2023-02-04T21:51:04.076Z,99.99
2023-02-04T21:54:12.164Z,99.99
2023-02-04T21:57:20.008Z,99.99
2023-02-04T22:00:28.409Z,99.99
2023-02-04T22:03:36.446Z,99.99
2023-02-04T22:06:44.283Z,99.99
2023-02-04T22:09:52.693Z,99.99
2023-02-04T22:13:00.513Z,99.99
2023-02-04T22:16:09.024Z,99.99
2023-02-04T22:19:16.987Z,99.99
2023-02-04T22:22:25.141Z,99.99
2023-02-04T22:25:33.535Z,99.99
2023-02-04T22:28:42.174Z,99.99
2023-02-04T22:31:50.505Z,99.99
2023-02-04T22:34:58.550Z,99.94
2023-02-04T22:38:06.601Z,99.84
2023-02-04T22:41:15.320Z,99.52
2023-02-04T22:44:23.227Z,99.31
2023-02-04T22:47:31.194Z,99.46
2023-02-04T22:50:39.252Z,99.31
2023-02-04T22:53:47.324Z,99.15
2023-02-04T22:56:55.164Z,99.35
2023-02-04T23:00:03.984Z,99.25
2023-02-04T23:03:12.212Z,99.15
2023-02-04T23:06:20.170Z,99.25
2023-02-04T23:09:28.554Z,99.19
2023-02-04T23:12:36.245Z,99.30
2023-02-04T23:15:44.922Z,99.51
2023-02-04T23:18:52.892Z,99.51
2023-02-04T23:22:00.679Z,99.61
2023-02-04T23:25:09.508Z,99.61
2023-02-04T23:28:17.783Z,99.71
2023-02-04T23:31:25.560Z,99.82
2023-02-04T23:34:33.739Z,99.93
2023-02-04T23:37:41.804Z,99.71
2023-02-04T23:40:49.464Z,99.82
2023-02-04T23:43:58.001Z,99.82
2023-02-04T23:47:05.756Z,99.71
2023-02-04T23:50:14.387Z,99.71
2023-02-04T23:53:23.031Z,99.61
2023-02-04T23:56:31.142Z,99.71
2023-02-04T23:59:39.294Z,99.61
